Odon, Indiana
Current Conditions -  °F | °C
As of 7:15 AM on Saturday 22 Nov 2014 (Local Time) from KDCY Reporting Station
Overcast Overcast  
Wind Chill: 37°   Ceiling: 9500
Heat Index: 44°   Visibility: 10mi
Dew Point: 38°   Wind: 13mph
Humidity: 80%   Direction: 180°S
Pressure: 30.21"   Gusts: NA
Location:  38.84°N, 86.99°W
Report Text: KDCY 221315Z AUTO 18011KT 10SM OVC095 06/03 A3021 RMK AO2 T00640031
Loading
Personal Weather Stations






























Interactive Weather Map New forecast layout! Learn more

10-Day Weather Forecast

Advertisements
Track Severe Weather on mobile